sensor_id;sensor_type;location;lat;lon;timestamp;temperature;humidity
6293;DHT22;3179;54.350;10.102;2024-01-07T00:02:22;3.70;99.90
6293;DHT22;3179;54.350;10.102;2024-01-07T00:04:51;3.70;99.90
6293;DHT22;3179;54.350;10.102;2024-01-07T00:07:18;3.70;99.90
6293;DHT22;3179;54.350;10.102;2024-01-07T00:09:46;3.70;99.90
6293;DHT22;3179;54.350;10.102;2024-01-07T00:12:13;3.70;99.90
6293;DHT22;3179;54.350;10.102;2024-01-07T00:14:40;3.70;99.90
6293;DHT22;3179;54.350;10.102;2024-01-07T00:17:07;3.70;99.90
6293;DHT22;3179;54.350;10.102;2024-01-07T00:19:35;3.60;99.90
6293;DHT22;3179;54.350;10.102;2024-01-07T00:22:04;3.70;99.90
6293;DHT22;3179;54.350;10.102;2024-01-07T00:24:31;3.70;99.90
6293;DHT22;3179;54.350;10.102;2024-01-07T00:26:59;3.70;99.90
6293;DHT22;3179;54.350;10.102;2024-01-07T00:29:26;3.70;99.90
6293;DHT22;3179;54.350;10.102;2024-01-07T00:31:53;3.70;99.90
6293;DHT22;3179;54.350;10.102;2024-01-07T00:34:20;3.70;99.90
6293;DHT22;3179;54.350;10.102;2024-01-07T00:36:48;3.70;99.90
6293;DHT22;3179;54.350;10.102;2024-01-07T00:39:15;3.70;99.90
6293;DHT22;3179;54.350;10.102;2024-01-07T00:41:43;3.70;99.90
6293;DHT22;3179;54.350;10.102;2024-01-07T00:44:11;3.70;99.90
6293;DHT22;3179;54.350;10.102;2024-01-07T00:46:38;3.70;99.90
6293;DHT22;3179;54.350;10.102;2024-01-07T00:49:05;3.70;99.90
6293;DHT22;3179;54.350;10.102;2024-01-07T00:51:32;3.70;99.90
6293;DHT22;3179;54.350;10.102;2024-01-07T00:54:02;3.70;99.90
6293;DHT22;3179;54.350;10.102;2024-01-07T00:56:30;3.60;99.90
6293;DHT22;3179;54.350;10.102;2024-01-07T00:58:57;3.70;99.90
6293;DHT22;3179;54.350;10.102;2024-01-07T01:01:24;3.70;99.90
6293;DHT22;3179;54.350;10.102;2024-01-07T01:03:50;3.70;99.90
6293;DHT22;3179;54.350;10.102;2024-01-07T01:06:18;3.70;99.90
6293;DHT22;3179;54.350;10.102;2024-01-07T01:08:45;3.70;99.90
6293;DHT22;3179;54.350;10.102;2024-01-07T01:11:13;3.70;99.90
6293;DHT22;3179;54.350;10.102;2024-01-07T01:13:40;3.70;99.90
6293;DHT22;3179;54.350;10.102;2024-01-07T01:16:07;3.70;99.90
6293;DHT22;3179;54.350;10.102;2024-01-07T01:18:34;3.70;99.90
6293;DHT22;3179;54.350;10.102;2024-01-07T01:21:01;3.70;99.90
6293;DHT22;3179;54.350;10.102;2024-01-07T01:23:28;3.70;99.90
6293;DHT22;3179;54.350;10.102;2024-01-07T01:25:55;3.70;99.90
6293;DHT22;3179;54.350;10.102;2024-01-07T01:28:23;3.70;99.90
6293;DHT22;3179;54.350;10.102;2024-01-07T01:30:50;3.60;99.90
6293;DHT22;3179;54.350;10.102;2024-01-07T01:33:17;3.60;99.90
6293;DHT22;3179;54.350;10.102;2024-01-07T01:35:43;3.60;99.90
6293;DHT22;3179;54.350;10.102;2024-01-07T01:38:10;3.60;99.90
6293;DHT22;3179;54.350;10.102;2024-01-07T01:40:37;3.70;99.90
6293;DHT22;3179;54.350;10.102;2024-01-07T01:43:04;3.60;99.90
6293;DHT22;3179;54.350;10.102;2024-01-07T01:45:32;3.60;99.90
6293;DHT22;3179;54.350;10.102;2024-01-07T01:48:00;3.60;99.90
6293;DHT22;3179;54.350;10.102;2024-01-07T01:50:27;3.60;99.90
6293;DHT22;3179;54.350;10.102;2024-01-07T01:52:53;3.60;99.90
6293;DHT22;3179;54.350;10.102;2024-01-07T01:55:21;3.60;99.90
6293;DHT22;3179;54.350;10.102;2024-01-07T01:57:49;3.60;99.90
6293;DHT22;3179;54.350;10.102;2024-01-07T02:00:17;3.60;99.90
6293;DHT22;3179;54.350;10.102;2024-01-07T02:02:46;3.60;99.90
6293;DHT22;3179;54.350;10.102;2024-01-07T02:05:12;3.60;99.90
6293;DHT22;3179;54.350;10.102;2024-01-07T02:07:39;3.60;99.90
6293;DHT22;3179;54.350;10.102;2024-01-07T02:10:07;3.60;99.90
6293;DHT22;3179;54.350;10.102;2024-01-07T02:12:34;3.60;99.90
6293;DHT22;3179;54.350;10.102;2024-01-07T02:15:01;3.60;99.90
6293;DHT22;3179;54.350;10.102;2024-01-07T02:17:29;3.60;99.90
6293;DHT22;3179;54.350;10.102;2024-01-07T02:19:57;3.60;99.90
6293;DHT22;3179;54.350;10.102;2024-01-07T02:22:24;3.60;99.90
6293;DHT22;3179;54.350;10.102;2024-01-07T02:24:52;3.60;99.90
6293;DHT22;3179;54.350;10.102;2024-01-07T02:27:19;3.60;99.90
6293;DHT22;3179;54.350;10.102;2024-01-07T02:29:46;3.60;99.90
6293;DHT22;3179;54.350;10.102;2024-01-07T02:32:13;3.60;99.90
6293;DHT22;3179;54.350;10.102;2024-01-07T02:34:40;3.60;99.90
6293;DHT22;3179;54.350;10.102;2024-01-07T02:37:06;3.60;99.90
6293;DHT22;3179;54.350;10.102;2024-01-07T02:39:33;3.60;99.90
6293;DHT22;3179;54.350;10.102;2024-01-07T02:42:02;3.60;99.90
6293;DHT22;3179;54.350;10.102;2024-01-07T02:44:29;3.60;99.90
6293;DHT22;3179;54.350;10.102;2024-01-07T02:46:56;3.60;99.90
6293;DHT22;3179;54.350;10.102;2024-01-07T02:49:22;3.50;99.90
6293;DHT22;3179;54.350;10.102;2024-01-07T02:51:49;3.50;99.90
6293;DHT22;3179;54.350;10.102;2024-01-07T02:54:16;3.50;99.90
6293;DHT22;3179;54.350;10.102;2024-01-07T02:56:43;3.50;99.90
6293;DHT22;3179;54.350;10.102;2024-01-07T02:59:11;3.50;99.90
6293;DHT22;3179;54.350;10.102;2024-01-07T03:01:38;3.50;99.90
6293;DHT22;3179;54.350;10.102;2024-01-07T03:04:06;3.50;99.90
6293;DHT22;3179;54.350;10.102;2024-01-07T03:06:33;3.50;99.90
6293;DHT22;3179;54.350;10.102;2024-01-07T03:09:00;3.50;99.90
6293;DHT22;3179;54.350;10.102;2024-01-07T03:11:27;3.50;99.90
6293;DHT22;3179;54.350;10.102;2024-01-07T03:13:55;3.50;99.90
6293;DHT22;3179;54.350;10.102;2024-01-07T03:16:24;3.50;99.90
6293;DHT22;3179;54.350;10.102;2024-01-07T03:18:52;3.50;99.90
6293;DHT22;3179;54.350;10.102;2024-01-07T03:21:19;3.50;99.90
6293;DHT22;3179;54.350;10.102;2024-01-07T03:23:46;3.40;99.90
6293;DHT22;3179;54.350;10.102;2024-01-07T03:26:14;3.40;99.90
6293;DHT22;3179;54.350;10.102;2024-01-07T03:28:40;3.40;99.90
6293;DHT22;3179;54.350;10.102;2024-01-07T03:31:09;3.40;99.90
6293;DHT22;3179;54.350;10.102;2024-01-07T03:33:37;3.40;99.90
6293;DHT22;3179;54.350;10.102;2024-01-07T03:36:07;3.40;99.90
6293;DHT22;3179;54.350;10.102;2024-01-07T03:38:34;3.30;99.90
6293;DHT22;3179;54.350;10.102;2024-01-07T03:41:01;3.40;99.90
6293;DHT22;3179;54.350;10.102;2024-01-07T03:43:28;3.30;99.90
6293;DHT22;3179;54.350;10.102;2024-01-07T03:45:55;3.30;99.90
6293;DHT22;3179;54.350;10.102;2024-01-07T03:48:22;3.30;99.90
6293;DHT22;3179;54.350;10.102;2024-01-07T03:50:50;3.20;99.90
6293;DHT22;3179;54.350;10.102;2024-01-07T03:53:17;3.20;99.90
6293;DHT22;3179;54.350;10.102;2024-01-07T03:55:45;3.20;99.90
6293;DHT22;3179;54.350;10.102;2024-01-07T03:58:11;3.20;99.90
6293;DHT22;3179;54.350;10.102;2024-01-07T04:00:38;3.20;99.90
6293;DHT22;3179;54.350;10.102;2024-01-07T04:03:05;3.20;99.90
6293;DHT22;3179;54.350;10.102;2024-01-07T04:05:32;3.10;99.90
6293;DHT22;3179;54.350;10.102;2024-01-07T04:08:01;3.20;99.90
6293;DHT22;3179;54.350;10.102;2024-01-07T04:10:28;3.10;99.90
6293;DHT22;3179;54.350;10.102;2024-01-07T04:12:55;3.10;99.90
6293;DHT22;3179;54.350;10.102;2024-01-07T04:15:23;3.20;99.90
6293;DHT22;3179;54.350;10.102;2024-01-07T04:17:50;3.20;99.90
6293;DHT22;3179;54.350;10.102;2024-01-07T04:20:17;3.20;99.90
6293;DHT22;3179;54.350;10.102;2024-01-07T04:22:44;3.30;99.90
6293;DHT22;3179;54.350;10.102;2024-01-07T04:25:12;3.20;99.90
6293;DHT22;3179;54.350;10.102;2024-01-07T04:27:39;3.30;99.90
6293;DHT22;3179;54.350;10.102;2024-01-07T04:30:06;3.30;99.90
6293;DHT22;3179;54.350;10.102;2024-01-07T04:32:33;3.20;99.90
6293;DHT22;3179;54.350;10.102;2024-01-07T04:35:00;3.30;99.90
6293;DHT22;3179;54.350;10.102;2024-01-07T04:37:27;3.30;99.90
6293;DHT22;3179;54.350;10.102;2024-01-07T04:39:54;3.20;99.90
6293;DHT22;3179;54.350;10.102;2024-01-07T04:42:25;3.30;99.90
6293;DHT22;3179;54.350;10.102;2024-01-07T04:44:52;3.30;99.90
6293;DHT22;3179;54.350;10.102;2024-01-07T04:47:29;3.20;99.90
6293;DHT22;3179;54.350;10.102;2024-01-07T04:49:57;3.20;99.90
6293;DHT22;3179;54.350;10.102;2024-01-07T04:52:24;3.20;99.90
6293;DHT22;3179;54.350;10.102;2024-01-07T04:54:52;3.20;99.90
6293;DHT22;3179;54.350;10.102;2024-01-07T04:57:19;3.20;99.90
6293;DHT22;3179;54.350;10.102;2024-01-07T04:59:48;3.20;99.90
6293;DHT22;3179;54.350;10.102;2024-01-07T05:02:15;3.20;99.90
6293;DHT22;3179;54.350;10.102;2024-01-07T05:04:42;3.20;99.90
6293;DHT22;3179;54.350;10.102;2024-01-07T05:07:09;3.20;99.90
6293;DHT22;3179;54.350;10.102;2024-01-07T05:09:36;3.20;99.90
6293;DHT22;3179;54.350;10.102;2024-01-07T05:12:03;3.20;99.90
6293;DHT22;3179;54.350;10.102;2024-01-07T05:14:31;3.20;99.90
6293;DHT22;3179;54.350;10.102;2024-01-07T05:16:59;3.20;99.90
6293;DHT22;3179;54.350;10.102;2024-01-07T05:19:26;3.20;99.90
6293;DHT22;3179;54.350;10.102;2024-01-07T05:21:53;3.20;99.90
6293;DHT22;3179;54.350;10.102;2024-01-07T05:24:20;3.20;99.90
6293;DHT22;3179;54.350;10.102;2024-01-07T05:26:47;3.20;99.90
6293;DHT22;3179;54.350;10.102;2024-01-07T05:29:14;3.20;99.90
6293;DHT22;3179;54.350;10.102;2024-01-07T05:31:41;3.20;99.90
6293;DHT22;3179;54.350;10.102;2024-01-07T05:34:09;3.10;99.90
6293;DHT22;3179;54.350;10.102;2024-01-07T05:36:36;3.20;99.90
6293;DHT22;3179;54.350;10.102;2024-01-07T05:39:03;3.10;99.90
6293;DHT22;3179;54.350;10.102;2024-01-07T05:41:30;3.10;99.90
6293;DHT22;3179;54.350;10.102;2024-01-07T05:43:57;3.10;99.90
6293;DHT22;3179;54.350;10.102;2024-01-07T05:46:23;3.00;99.90
6293;DHT22;3179;54.350;10.102;2024-01-07T05:48:50;3.00;99.90
6293;DHT22;3179;54.350;10.102;2024-01-07T05:51:18;3.00;99.90
6293;DHT22;3179;54.350;10.102;2024-01-07T05:53:45;3.00;99.90
6293;DHT22;3179;54.350;10.102;2024-01-07T05:56:14;3.00;99.90
6293;DHT22;3179;54.350;10.102;2024-01-07T05:58:40;3.00;99.90
6293;DHT22;3179;54.350;10.102;2024-01-07T06:01:07;3.00;99.90
6293;DHT22;3179;54.350;10.102;2024-01-07T06:03:34;3.00;99.90
6293;DHT22;3179;54.350;10.102;2024-01-07T06:06:01;3.00;99.90
6293;DHT22;3179;54.350;10.102;2024-01-07T06:08:29;3.00;99.90
6293;DHT22;3179;54.350;10.102;2024-01-07T06:10:56;3.00;99.90
6293;DHT22;3179;54.350;10.102;2024-01-07T06:13:24;3.00;99.90
6293;DHT22;3179;54.350;10.102;2024-01-07T06:15:52;3.00;99.90
6293;DHT22;3179;54.350;10.102;2024-01-07T06:18:19;2.90;99.90
6293;DHT22;3179;54.350;10.102;2024-01-07T06:20:45;2.90;99.90
6293;DHT22;3179;54.350;10.102;2024-01-07T06:23:12;2.90;99.90
6293;DHT22;3179;54.350;10.102;2024-01-07T06:25:46;2.90;99.90
6293;DHT22;3179;54.350;10.102;2024-01-07T06:28:13;2.90;99.90
6293;DHT22;3179;54.350;10.102;2024-01-07T06:30:40;2.90;99.90
6293;DHT22;3179;54.350;10.102;2024-01-07T06:33:06;2.90;99.90
6293;DHT22;3179;54.350;10.102;2024-01-07T06:35:33;2.90;99.90
6293;DHT22;3179;54.350;10.102;2024-01-07T06:38:00;2.90;99.90
6293;DHT22;3179;54.350;10.102;2024-01-07T06:40:27;2.90;99.90
6293;DHT22;3179;54.350;10.102;2024-01-07T06:42:55;2.90;99.90
6293;DHT22;3179;54.350;10.102;2024-01-07T06:45:22;2.90;99.90
6293;DHT22;3179;54.350;10.102;2024-01-07T06:47:49;2.80;99.90
6293;DHT22;3179;54.350;10.102;2024-01-07T06:50:16;2.80;99.90
6293;DHT22;3179;54.350;10.102;2024-01-07T06:52:45;2.80;99.90
6293;DHT22;3179;54.350;10.102;2024-01-07T06:55:12;2.90;99.90
6293;DHT22;3179;54.350;10.102;2024-01-07T06:57:39;2.80;99.90
6293;DHT22;3179;54.350;10.102;2024-01-07T07:00:08;2.80;99.90
6293;DHT22;3179;54.350;10.102;2024-01-07T07:02:35;2.80;99.90
6293;DHT22;3179;54.350;10.102;2024-01-07T07:05:02;2.80;99.90
6293;DHT22;3179;54.350;10.102;2024-01-07T07:07:29;2.80;99.90
6293;DHT22;3179;54.350;10.102;2024-01-07T07:09:55;2.80;99.90
6293;DHT22;3179;54.350;10.102;2024-01-07T07:12:24;2.80;99.90
6293;DHT22;3179;54.350;10.102;2024-01-07T07:14:51;2.80;99.90
6293;DHT22;3179;54.350;10.102;2024-01-07T07:17:18;2.80;99.90
6293;DHT22;3179;54.350;10.102;2024-01-07T07:19:45;2.80;99.90
6293;DHT22;3179;54.350;10.102;2024-01-07T07:22:12;2.70;99.90
6293;DHT22;3179;54.350;10.102;2024-01-07T07:24:40;2.80;99.90
6293;DHT22;3179;54.350;10.102;2024-01-07T07:27:07;2.70;99.90
6293;DHT22;3179;54.350;10.102;2024-01-07T07:29:34;2.70;99.90
6293;DHT22;3179;54.350;10.102;2024-01-07T07:32:01;2.70;99.90
6293;DHT22;3179;54.350;10.102;2024-01-07T07:34:29;2.60;99.90
6293;DHT22;3179;54.350;10.102;2024-01-07T07:36:56;2.50;99.90
6293;DHT22;3179;54.350;10.102;2024-01-07T07:39:23;2.50;99.90
6293;DHT22;3179;54.350;10.102;2024-01-07T07:41:50;2.50;99.90
6293;DHT22;3179;54.350;10.102;2024-01-07T07:44:17;2.50;99.90
6293;DHT22;3179;54.350;10.102;2024-01-07T07:46:44;2.60;99.90
6293;DHT22;3179;54.350;10.102;2024-01-07T07:49:10;2.50;99.90
6293;DHT22;3179;54.350;10.102;2024-01-07T07:51:39;2.60;99.90
6293;DHT22;3179;54.350;10.102;2024-01-07T07:54:06;2.50;99.90
6293;DHT22;3179;54.350;10.102;2024-01-07T07:56:33;2.50;99.90
6293;DHT22;3179;54.350;10.102;2024-01-07T07:59:01;2.50;99.90
6293;DHT22;3179;54.350;10.102;2024-01-07T08:01:28;2.50;99.90
6293;DHT22;3179;54.350;10.102;2024-01-07T08:03:55;2.50;99.90
6293;DHT22;3179;54.350;10.102;2024-01-07T08:06:22;2.50;99.90
6293;DHT22;3179;54.350;10.102;2024-01-07T08:08:50;2.50;99.90
6293;DHT22;3179;54.350;10.102;2024-01-07T08:11:17;2.60;99.90
6293;DHT22;3179;54.350;10.102;2024-01-07T08:13:44;2.60;99.90
6293;DHT22;3179;54.350;10.102;2024-01-07T08:16:10;2.60;99.90
6293;DHT22;3179;54.350;10.102;2024-01-07T08:18:37;2.60;99.90
6293;DHT22;3179;54.350;10.102;2024-01-07T08:21:04;2.50;99.90
6293;DHT22;3179;54.350;10.102;2024-01-07T08:23:31;2.60;99.90
6293;DHT22;3179;54.350;10.102;2024-01-07T08:25:59;2.60;99.90
6293;DHT22;3179;54.350;10.102;2024-01-07T08:28:26;2.50;99.90
6293;DHT22;3179;54.350;10.102;2024-01-07T08:30:53;2.50;99.90
6293;DHT22;3179;54.350;10.102;2024-01-07T08:33:21;2.60;99.90
6293;DHT22;3179;54.350;10.102;2024-01-07T08:35:48;2.60;99.90
6293;DHT22;3179;54.350;10.102;2024-01-07T08:38:15;2.60;99.90
6293;DHT22;3179;54.350;10.102;2024-01-07T08:40:42;2.60;99.90
6293;DHT22;3179;54.350;10.102;2024-01-07T08:43:10;2.60;99.90
6293;DHT22;3179;54.350;10.102;2024-01-07T08:45:37;2.60;99.90
6293;DHT22;3179;54.350;10.102;2024-01-07T08:48:04;2.60;99.90
6293;DHT22;3179;54.350;10.102;2024-01-07T08:50:31;2.60;99.90
6293;DHT22;3179;54.350;10.102;2024-01-07T08:52:58;2.60;99.90
6293;DHT22;3179;54.350;10.102;2024-01-07T08:55:25;2.60;99.90
6293;DHT22;3179;54.350;10.102;2024-01-07T08:57:52;2.70;99.90
6293;DHT22;3179;54.350;10.102;2024-01-07T09:00:21;2.60;99.90
6293;DHT22;3179;54.350;10.102;2024-01-07T09:02:51;2.60;99.90
6293;DHT22;3179;54.350;10.102;2024-01-07T09:05:18;2.60;99.90
6293;DHT22;3179;54.350;10.102;2024-01-07T09:07:45;2.70;99.90
6293;DHT22;3179;54.350;10.102;2024-01-07T09:10:12;2.70;99.90
6293;DHT22;3179;54.350;10.102;2024-01-07T09:12:39;2.70;99.90
6293;DHT22;3179;54.350;10.102;2024-01-07T09:15:07;2.80;99.90
6293;DHT22;3179;54.350;10.102;2024-01-07T09:17:36;2.80;99.90
6293;DHT22;3179;54.350;10.102;2024-01-07T09:20:04;2.80;99.90
6293;DHT22;3179;54.350;10.102;2024-01-07T09:22:33;2.80;99.90
6293;DHT22;3179;54.350;10.102;2024-01-07T09:25:01;2.80;99.90
6293;DHT22;3179;54.350;10.102;2024-01-07T09:27:28;2.80;99.90
6293;DHT22;3179;54.350;10.102;2024-01-07T09:29:55;2.80;99.90
6293;DHT22;3179;54.350;10.102;2024-01-07T09:32:25;2.80;99.90
6293;DHT22;3179;54.350;10.102;2024-01-07T09:34:53;2.80;99.90
6293;DHT22;3179;54.350;10.102;2024-01-07T09:37:20;2.80;99.90
6293;DHT22;3179;54.350;10.102;2024-01-07T09:39:47;2.80;99.90
6293;DHT22;3179;54.350;10.102;2024-01-07T09:42:17;2.80;99.90
6293;DHT22;3179;54.350;10.102;2024-01-07T09:44:44;2.80;99.90
6293;DHT22;3179;54.350;10.102;2024-01-07T09:47:12;2.70;99.90
6293;DHT22;3179;54.350;10.102;2024-01-07T09:49:39;2.70;99.90
6293;DHT22;3179;54.350;10.102;2024-01-07T09:52:09;2.70;99.90
6293;DHT22;3179;54.350;10.102;2024-01-07T09:54:37;2.80;99.90
6293;DHT22;3179;54.350;10.102;2024-01-07T09:57:05;2.70;99.90
6293;DHT22;3179;54.350;10.102;2024-01-07T09:59:33;2.80;99.90
6293;DHT22;3179;54.350;10.102;2024-01-07T10:02:02;2.80;99.90
6293;DHT22;3179;54.350;10.102;2024-01-07T10:04:29;2.70;99.90
6293;DHT22;3179;54.350;10.102;2024-01-07T10:06:56;2.70;99.90
6293;DHT22;3179;54.350;10.102;2024-01-07T10:09:29;2.80;99.90
6293;DHT22;3179;54.350;10.102;2024-01-07T10:11:56;2.80;99.90
6293;DHT22;3179;54.350;10.102;2024-01-07T10:14:23;2.70;99.90
6293;DHT22;3179;54.350;10.102;2024-01-07T10:16:50;2.70;99.90
6293;DHT22;3179;54.350;10.102;2024-01-07T10:19:21;2.70;99.90
6293;DHT22;3179;54.350;10.102;2024-01-07T10:21:58;2.80;99.90
6293;DHT22;3179;54.350;10.102;2024-01-07T10:24:35;2.70;99.90
6293;DHT22;3179;54.350;10.102;2024-01-07T10:27:03;2.70;99.90
6293;DHT22;3179;54.350;10.102;2024-01-07T10:29:30;2.60;99.90
6293;DHT22;3179;54.350;10.102;2024-01-07T10:31:57;2.60;99.90
6293;DHT22;3179;54.350;10.102;2024-01-07T10:34:25;2.50;99.90
6293;DHT22;3179;54.350;10.102;2024-01-07T10:36:54;2.50;99.90
6293;DHT22;3179;54.350;10.102;2024-01-07T10:39:23;2.50;99.90
6293;DHT22;3179;54.350;10.102;2024-01-07T10:41:52;2.50;99.90
6293;DHT22;3179;54.350;10.102;2024-01-07T10:44:24;2.50;99.90
6293;DHT22;3179;54.350;10.102;2024-01-07T10:46:54;2.40;99.90
6293;DHT22;3179;54.350;10.102;2024-01-07T10:49:23;2.40;99.90
6293;DHT22;3179;54.350;10.102;2024-01-07T10:52:00;2.40;99.90
6293;DHT22;3179;54.350;10.102;2024-01-07T10:54:29;2.50;99.90
6293;DHT22;3179;54.350;10.102;2024-01-07T10:57:00;2.50;99.90
6293;DHT22;3179;54.350;10.102;2024-01-07T10:59:32;2.60;99.90
6293;DHT22;3179;54.350;10.102;2024-01-07T11:02:00;2.60;99.90
6293;DHT22;3179;54.350;10.102;2024-01-07T11:04:34;2.60;99.90
6293;DHT22;3179;54.350;10.102;2024-01-07T11:07:09;2.70;99.90
6293;DHT22;3179;54.350;10.102;2024-01-07T11:09:43;2.70;99.90
6293;DHT22;3179;54.350;10.102;2024-01-07T11:12:14;2.70;99.90
6293;DHT22;3179;54.350;10.102;2024-01-07T11:14:42;2.60;99.90
6293;DHT22;3179;54.350;10.102;2024-01-07T11:17:11;2.70;99.90
6293;DHT22;3179;54.350;10.102;2024-01-07T11:19:45;2.70;99.90
6293;DHT22;3179;54.350;10.102;2024-01-07T11:22:26;2.60;99.90
6293;DHT22;3179;54.350;10.102;2024-01-07T11:24:54;2.60;99.90
6293;DHT22;3179;54.350;10.102;2024-01-07T11:27:23;2.70;99.90
6293;DHT22;3179;54.350;10.102;2024-01-07T11:29:54;2.70;99.90
6293;DHT22;3179;54.350;10.102;2024-01-07T11:32:22;2.70;99.90
6293;DHT22;3179;54.350;10.102;2024-01-07T11:34:51;2.70;99.90
6293;DHT22;3179;54.350;10.102;2024-01-07T11:37:19;2.70;99.90
6293;DHT22;3179;54.350;10.102;2024-01-07T11:39:48;2.70;99.90
6293;DHT22;3179;54.350;10.102;2024-01-07T11:42:15;2.70;99.90
6293;DHT22;3179;54.350;10.102;2024-01-07T11:44:47;2.70;99.90
6293;DHT22;3179;54.350;10.102;2024-01-07T11:47:15;2.70;99.90
6293;DHT22;3179;54.350;10.102;2024-01-07T11:49:42;2.60;99.90
6293;DHT22;3179;54.350;10.102;2024-01-07T11:52:10;2.70;99.90
6293;DHT22;3179;54.350;10.102;2024-01-07T11:54:37;2.60;99.90
6293;DHT22;3179;54.350;10.102;2024-01-07T11:57:04;2.60;99.90
6293;DHT22;3179;54.350;10.102;2024-01-07T11:59:31;2.60;99.90
6293;DHT22;3179;54.350;10.102;2024-01-07T12:02:00;2.60;99.90
6293;DHT22;3179;54.350;10.102;2024-01-07T12:04:29;2.60;99.90
6293;DHT22;3179;54.350;10.102;2024-01-07T12:06:56;2.60;99.90
6293;DHT22;3179;54.350;10.102;2024-01-07T12:09:23;2.60;99.90
6293;DHT22;3179;54.350;10.102;2024-01-07T12:11:50;2.60;99.90
6293;DHT22;3179;54.350;10.102;2024-01-07T12:14:18;2.60;99.90
6293;DHT22;3179;54.350;10.102;2024-01-07T12:16:46;2.60;99.90
6293;DHT22;3179;54.350;10.102;2024-01-07T12:19:14;2.60;99.90
6293;DHT22;3179;54.350;10.102;2024-01-07T12:21:41;2.60;99.90
6293;DHT22;3179;54.350;10.102;2024-01-07T12:24:09;2.60;99.90
6293;DHT22;3179;54.350;10.102;2024-01-07T12:26:39;2.60;99.90
6293;DHT22;3179;54.350;10.102;2024-01-07T12:29:07;2.60;99.90
6293;DHT22;3179;54.350;10.102;2024-01-07T12:31:38;2.60;99.90
6293;DHT22;3179;54.350;10.102;2024-01-07T12:34:05;2.60;99.90
6293;DHT22;3179;54.350;10.102;2024-01-07T12:36:35;2.60;99.90
6293;DHT22;3179;54.350;10.102;2024-01-07T12:39:02;2.50;99.90
6293;DHT22;3179;54.350;10.102;2024-01-07T12:41:29;2.40;99.90
6293;DHT22;3179;54.350;10.102;2024-01-07T12:43:56;2.40;99.90
6293;DHT22;3179;54.350;10.102;2024-01-07T12:46:23;2.30;99.90
6293;DHT22;3179;54.350;10.102;2024-01-07T12:48:50;2.40;99.90
6293;DHT22;3179;54.350;10.102;2024-01-07T12:51:19;2.40;99.90
6293;DHT22;3179;54.350;10.102;2024-01-07T12:53:48;2.50;99.90
6293;DHT22;3179;54.350;10.102;2024-01-07T12:56:14;2.50;99.90
6293;DHT22;3179;54.350;10.102;2024-01-07T12:58:41;2.50;99.90
6293;DHT22;3179;54.350;10.102;2024-01-07T13:01:08;2.50;99.90
6293;DHT22;3179;54.350;10.102;2024-01-07T13:03:36;2.50;99.90
6293;DHT22;3179;54.350;10.102;2024-01-07T13:06:03;2.40;99.90
6293;DHT22;3179;54.350;10.102;2024-01-07T13:08:30;2.40;99.90
6293;DHT22;3179;54.350;10.102;2024-01-07T13:10:58;2.40;99.90
6293;DHT22;3179;54.350;10.102;2024-01-07T13:13:26;2.40;99.90
6293;DHT22;3179;54.350;10.102;2024-01-07T13:15:54;2.40;99.90
6293;DHT22;3179;54.350;10.102;2024-01-07T13:18:26;2.40;99.90
6293;DHT22;3179;54.350;10.102;2024-01-07T13:20:53;2.40;99.90
6293;DHT22;3179;54.350;10.102;2024-01-07T13:23:23;2.40;99.90
6293;DHT22;3179;54.350;10.102;2024-01-07T13:25:54;2.40;99.90
6293;DHT22;3179;54.350;10.102;2024-01-07T13:28:23;2.40;99.90
6293;DHT22;3179;54.350;10.102;2024-01-07T13:30:50;2.40;99.90
6293;DHT22;3179;54.350;10.102;2024-01-07T13:33:18;2.50;99.90
6293;DHT22;3179;54.350;10.102;2024-01-07T13:35:45;2.40;99.90
6293;DHT22;3179;54.350;10.102;2024-01-07T13:38:12;2.30;99.90
6293;DHT22;3179;54.350;10.102;2024-01-07T13:40:39;2.40;99.90
6293;DHT22;3179;54.350;10.102;2024-01-07T13:43:06;2.40;99.90
6293;DHT22;3179;54.350;10.102;2024-01-07T13:45:34;2.40;99.90
6293;DHT22;3179;54.350;10.102;2024-01-07T13:48:02;2.40;99.90
6293;DHT22;3179;54.350;10.102;2024-01-07T13:50:29;2.30;99.90
6293;DHT22;3179;54.350;10.102;2024-01-07T13:52:56;2.40;99.90
6293;DHT22;3179;54.350;10.102;2024-01-07T13:55:23;2.40;99.90
6293;DHT22;3179;54.350;10.102;2024-01-07T13:57:50;2.30;99.90
6293;DHT22;3179;54.350;10.102;2024-01-07T14:00:18;2.40;99.90
6293;DHT22;3179;54.350;10.102;2024-01-07T14:02:46;2.40;99.90
6293;DHT22;3179;54.350;10.102;2024-01-07T14:05:14;2.40;99.90
6293;DHT22;3179;54.350;10.102;2024-01-07T14:07:41;2.40;99.90
6293;DHT22;3179;54.350;10.102;2024-01-07T14:10:09;2.30;99.90
6293;DHT22;3179;54.350;10.102;2024-01-07T14:12:43;2.30;99.90
6293;DHT22;3179;54.350;10.102;2024-01-07T14:15:26;2.30;99.90
6293;DHT22;3179;54.350;10.102;2024-01-07T14:17:57;2.30;99.90
6293;DHT22;3179;54.350;10.102;2024-01-07T14:20:24;2.40;99.90
6293;DHT22;3179;54.350;10.102;2024-01-07T14:22:54;2.40;99.90
6293;DHT22;3179;54.350;10.102;2024-01-07T14:25:21;2.30;99.90
6293;DHT22;3179;54.350;10.102;2024-01-07T14:27:48;2.30;99.90
6293;DHT22;3179;54.350;10.102;2024-01-07T14:30:30;2.40;99.90
6293;DHT22;3179;54.350;10.102;2024-01-07T14:32:58;2.40;99.90
6293;DHT22;3179;54.350;10.102;2024-01-07T14:35:25;2.30;99.90
6293;DHT22;3179;54.350;10.102;2024-01-07T14:37:57;2.30;99.90
6293;DHT22;3179;54.350;10.102;2024-01-07T14:40:25;2.40;99.90
6293;DHT22;3179;54.350;10.102;2024-01-07T14:42:52;2.40;99.90
6293;DHT22;3179;54.350;10.102;2024-01-07T14:45:29;2.30;99.90
6293;DHT22;3179;54.350;10.102;2024-01-07T14:49:38;2.30;99.90
6293;DHT22;3179;54.350;10.102;2024-01-07T14:51:13;2.40;99.90
6293;DHT22;3179;54.350;10.102;2024-01-07T14:53:49;2.40;99.90
6293;DHT22;3179;54.350;10.102;2024-01-07T14:56:19;2.40;99.90
6293;DHT22;3179;54.350;10.102;2024-01-07T14:58:47;2.40;99.90
6293;DHT22;3179;54.350;10.102;2024-01-07T15:01:14;2.30;99.90
6293;DHT22;3179;54.350;10.102;2024-01-07T15:03:42;2.20;99.90
6293;DHT22;3179;54.350;10.102;2024-01-07T15:06:10;2.30;99.90
6293;DHT22;3179;54.350;10.102;2024-01-07T15:08:40;2.30;99.90
6293;DHT22;3179;54.350;10.102;2024-01-07T15:11:08;2.30;99.90
6293;DHT22;3179;54.350;10.102;2024-01-07T15:13:34;2.30;99.90
6293;DHT22;3179;54.350;10.102;2024-01-07T15:16:03;2.20;99.90
6293;DHT22;3179;54.350;10.102;2024-01-07T15:18:30;2.20;99.90
6293;DHT22;3179;54.350;10.102;2024-01-07T15:20:58;2.20;99.90
6293;DHT22;3179;54.350;10.102;2024-01-07T15:23:28;2.30;99.90
6293;DHT22;3179;54.350;10.102;2024-01-07T15:25:58;2.20;99.90
6293;DHT22;3179;54.350;10.102;2024-01-07T15:28:25;2.20;99.90
6293;DHT22;3179;54.350;10.102;2024-01-07T15:30:54;2.20;99.90
6293;DHT22;3179;54.350;10.102;2024-01-07T15:33:37;2.20;99.90
6293;DHT22;3179;54.350;10.102;2024-01-07T15:36:31;2.10;99.90
6293;DHT22;3179;54.350;10.102;2024-01-07T15:39:15;2.10;99.90
6293;DHT22;3179;54.350;10.102;2024-01-07T15:41:59;2.10;99.90
6293;DHT22;3179;54.350;10.102;2024-01-07T15:44:28;2.00;99.90
6293;DHT22;3179;54.350;10.102;2024-01-07T15:46:58;2.00;99.90
6293;DHT22;3179;54.350;10.102;2024-01-07T15:49:40;2.00;99.90
6293;DHT22;3179;54.350;10.102;2024-01-07T15:52:08;1.90;99.90
6293;DHT22;3179;54.350;10.102;2024-01-07T15:54:35;1.90;99.90
6293;DHT22;3179;54.350;10.102;2024-01-07T15:57:14;1.90;99.90
6293;DHT22;3179;54.350;10.102;2024-01-07T15:59:52;1.90;99.90
6293;DHT22;3179;54.350;10.102;2024-01-07T16:02:26;1.90;99.90
6293;DHT22;3179;54.350;10.102;2024-01-07T16:04:54;1.90;99.90
6293;DHT22;3179;54.350;10.102;2024-01-07T16:07:22;1.90;99.90
6293;DHT22;3179;54.350;10.102;2024-01-07T16:09:49;1.80;99.90